Time;durP1;ratioP1;P1;durP2;ratioP2;P2;SDS_P1;SDS_P2;PMS_P1;PMS_P2;Temp;Humidity;BMP_temperature;BMP_pressure;BME280_temperature;BME280_humidity;BME280_pressure;Samples;Min_cycle;Max_cycle;Signal;HPM_P1;HPM_P2
2022/11/06 19:22:38;;;;;;;14.38;7.03;;;;;;;0.89;82.87;100345.75;5052839;28;20425;-49
2022/11/06 19:25:04;;;;;;;20.90;8.95;;;;;;;0.96;85.31;100343.28;5033584;28;20128;-53
2022/11/06 19:27:31;;;;;;;16.88;8.40;;;;;;;1.11;87.14;100345.19;5013066;28;20048;-53
2022/11/06 19:29:56;;;;;;;18.25;8.45;;;;;;;1.06;87.59;100331.47;5031627;28;20454;-47
2022/11/06 19:32:22;;;;;;;16.55;7.20;;;;;;;1.28;87.69;100344.59;5035399;28;20128;-53
2022/11/06 19:34:49;;;;;;;20.83;9.25;;;;;;;1.37;87.08;100332.72;5029920;28;20045;-54
2022/11/06 19:37:15;;;;;;;22.05;9.10;;;;;;;1.43;86.35;100335.38;5035104;28;20112;-51
2022/11/06 19:39:41;;;;;;;16.30;8.07;;;;;;;1.46;84.87;100335.44;5008085;28;20402;-53
2022/11/06 19:42:07;;;;;;;17.88;8.88;;;;;;;1.52;84.29;100330.38;5034824;28;20048;-48
2022/11/06 19:44:32;;;;;;;17.95;9.18;;;;;;;1.49;83.94;100307.28;5049986;28;20048;-47
2022/11/06 19:46:58;;;;;;;19.10;9.15;;;;;;;1.65;83.03;100333.13;5033655;28;20045;-50
2022/11/06 19:49:24;;;;;;;20.27;8.82;;;;;;;1.70;82.86;100338.28;5037625;28;20060;-52
2022/11/06 19:51:50;;;;;;;16.05;8.15;;;;;;;1.73;82.25;100324.66;5039593;28;20505;-47
2022/11/06 19:54:16;;;;;;;13.75;6.53;;;;;;;1.58;81.25;100305.69;5037717;28;20041;-51
2022/11/06 19:56:42;;;;;;;18.00;8.15;;;;;;;1.80;81.14;100322.16;5026509;28;20041;-48
2022/11/06 19:59:11;;;;;;;19.27;8.67;;;;;;;1.82;81.07;100320.50;5038225;28;20048;-48
2022/11/06 20:01:36;;;;;;;20.55;9.50;;;;;;;1.65;80.84;100281.00;5043354;28;20033;-51
2022/11/06 20:04:03;;;;;;;20.83;9.00;;;;;;;1.94;80.60;100312.91;5026298;28;20624;-50
2022/11/06 20:06:29;;;;;;;18.70;9.32;;;;;;;1.99;79.92;100323.25;5044859;28;20033;-48
2022/11/06 20:08:55;;;;;;;16.20;8.00;;;;;;;2.05;79.98;100318.16;5023125;28;20095;-49
2022/11/06 20:11:21;;;;;;;16.00;8.18;;;;;;;1.96;79.50;100298.41;5021009;28;20049;-51
2022/11/06 20:13:47;;;;;;;19.80;8.63;;;;;;;2.04;79.41;100326.72;5039481;28;20045;-48
2022/11/06 20:16:16;;;;;;;16.45;8.45;;;;;;;2.00;78.96;100318.09;5041360;28;20044;-51
2022/11/06 20:18:42;;;;;;;18.80;9.00;;;;;;;2.00;78.61;100289.03;5036530;28;20060;-50
2022/11/06 20:21:10;;;;;;;17.55;8.27;;;;;;;2.10;78.38;100304.53;5041338;28;20057;-47
2022/11/06 20:23:37;;;;;;;16.77;8.13;;;;;;;1.97;77.78;100277.06;5040133;28;20091;-52
2022/11/06 20:26:03;;;;;;;18.92;8.07;;;;;;;2.06;77.93;100289.97;5002218;28;20044;-51
2022/11/06 20:28:29;;;;;;;9.80;5.22;;;;;;;2.18;77.60;100314.88;5037291;28;20140;-48
2022/11/06 20:30:56;;;;;;;15.70;7.43;;;;;;;1.98;77.39;100277.94;5048785;28;20541;-44
2022/11/06 20:33:21;;;;;;;18.17;8.18;;;;;;;2.14;77.25;100302.88;5028145;28;20791;-46
2022/11/06 20:35:47;;;;;;;17.80;7.80;;;;;;;2.18;77.28;100302.06;5024494;28;20124;-44
2022/11/06 20:38:13;;;;;;;14.52;6.65;;;;;;;2.22;76.99;100308.06;5004955;28;20452;-43
2022/11/06 20:40:41;;;;;;;17.15;8.68;;;;;;;2.19;76.81;100300.34;5028977;28;20041;-44
2022/11/06 20:43:08;;;;;;;14.70;7.75;;;;;;;1.92;76.71;100249.66;5028130;28;20045;-46
2022/11/06 20:45:36;;;;;;;15.98;7.28;;;;;;;2.27;76.74;100294.44;5026775;28;20096;-45
2022/11/06 20:48:03;;;;;;;16.33;7.72;;;;;;;2.12;76.34;100271.22;5022750;28;20041;-44
2022/11/06 20:50:29;;;;;;;16.33;7.55;;;;;;;2.26;76.42;100291.84;5008390;28;20049;-47
2022/11/06 20:52:55;;;;;;;15.63;8.23;;;;;;;2.21;76.48;100270.41;5026579;28;20050;-45
2022/11/06 20:55:21;;;;;;;18.17;8.45;;;;;;;2.37;76.21;100288.53;5025610;28;20037;-43
2022/11/06 20:57:47;;;;;;;15.32;7.63;;;;;;;2.35;76.13;100290.25;5009529;28;20092;-47
2022/11/06 21:00:13;;;;;;;17.08;8.73;;;;;;;2.22;75.79;100273.00;5008678;28;20049;-47
2022/11/06 21:02:39;;;;;;;17.63;8.40;;;;;;;2.26;75.78;100284.16;5009408;28;20154;-47
2022/11/06 21:05:05;;;;;;;17.23;7.70;;;;;;;2.24;75.88;100284.16;4991585;28;20485;-45
2022/11/06 21:07:30;;;;;;;14.98;8.05;;;;;;;2.26;76.14;100281.56;5010127;28;20042;-48
2022/11/06 21:09:57;;;;;;;18.80;8.13;;;;;;;2.30;75.91;100270.53;4992995;28;20049;-48
2022/11/06 21:12:22;;;;;;;14.20;7.55;;;;;;;2.13;75.90;100258.41;5009674;28;20072;-49
2022/11/06 21:14:48;;;;;;;18.13;7.97;;;;;;;2.05;75.74;100243.78;5007130;28;20359;-46
2022/11/06 21:17:14;;;;;;;16.90;7.60;;;;;;;2.19;75.79;100267.00;5009523;28;20469;-44
2022/11/06 21:19:40;;;;;;;16.38;8.23;;;;;;;2.04;75.94;100250.59;4991870;28;20452;-43
2022/11/06 21:22:07;;;;;;;17.27;7.88;;;;;;;2.18;76.04;100273.84;5009312;28;20932;-48
2022/11/06 21:24:32;;;;;;;17.65;8.15;;;;;;;2.07;76.12;100247.22;5008332;28;20065;-45
2022/11/06 21:26:58;;;;;;;18.08;7.97;;;;;;;2.20;75.93;100279.00;4989720;28;20624;-45
2022/11/06 21:29:24;;;;;;;14.93;7.63;;;;;;;2.19;76.06;100270.44;5010307;28;20069;-47
2022/11/06 21:31:51;;;;;;;17.63;7.63;;;;;;;2.18;76.00;100273.84;5009434;28;20137;-46
2022/11/06 21:34:18;;;;;;;13.10;6.60;;;;;;;2.15;76.11;100275.53;5009452;28;20046;-45
2022/11/06 21:36:45;;;;;;;14.70;7.20;;;;;;;1.93;76.31;100233.44;5008312;28;20529;-46
2022/11/06 21:39:14;;;;;;;13.02;6.63;;;;;;;2.01;76.49;100270.25;5009281;28;20048;-46
2022/11/06 21:41:40;;;;;;;16.17;7.07;;;;;;;2.01;76.86;100271.13;5009358;28;20037;-48
2022/11/06 21:44:06;;;;;;;18.20;7.55;;;;;;;2.09;76.44;100260.94;5005890;28;20046;-47
2022/11/06 21:46:33;;;;;;;16.77;7.50;;;;;;;2.13;76.81;100255.84;4992891;28;20041;-46
2022/11/06 21:48:59;;;;;;;12.20;6.22;;;;;;;2.14;76.92;100261.84;5007668;28;20042;-46
2022/11/06 21:51:30;;;;;;;11.45;6.03;;;;;;;2.09;76.96;100258.38;4976431;28;20556;-48
2022/11/06 21:56:41;;;;;;;17.65;8.02;;;;;;;2.05;77.28;100246.34;5023652;28;20085;-45
2022/11/06 21:59:10;;;;;;;12.60;6.15;;;;;;;2.08;77.12;100251.53;5006658;28;20049;-47
2022/11/06 22:01:37;;;;;;;14.90;7.18;;;;;;;1.93;77.21;100225.75;5025552;28;20081;-48
2022/11/06 22:04:03;;;;;;;18.60;8.77;;;;;;;2.07;77.85;100242.09;5007948;28;20065;-48
2022/11/06 22:06:29;;;;;;;14.40;7.65;;;;;;;1.92;78.10;100219.75;4991885;28;20176;-46
2022/11/06 22:08:57;;;;;;;15.20;7.35;;;;;;;2.11;78.28;100234.44;5007573;28;20046;-47
2022/11/06 22:11:33;;;;;;;13.77;7.18;;;;;;;2.11;78.59;100248.97;5016022;28;20101;-50
2022/11/06 22:14:01;;;;;;;14.90;7.15;;;;;;;2.03;78.63;100241.22;5008256;28;20128;-47
2022/11/06 22:16:30;;;;;;;16.90;8.05;;;;;;;2.00;79.41;100246.31;5015060;28;20057;-48
2022/11/06 22:18:57;;;;;;;18.42;8.60;;;;;;;2.02;79.36;100251.47;4991650;28;20096;-50
2022/11/06 22:21:25;;;;;;;18.35;8.80;;;;;;;1.97;80.35;100240.31;4975559;28;20058;-52
2022/11/06 22:23:51;;;;;;;14.93;7.18;;;;;;;1.84;80.71;100208.56;5007185;28;20056;-49
2022/11/06 22:26:25;;;;;;;14.50;7.90;;;;;;;2.00;80.89;100230.91;5005839;28;20162;-47
2022/11/06 22:28:58;;;;;;;11.88;5.95;;;;;;;1.99;81.47;100238.63;4990275;28;20124;-49
2022/11/06 22:31:25;;;;;;;14.73;7.53;;;;;;;1.96;81.56;100238.56;5003601;28;20046;-47
2022/11/06 22:33:51;;;;;;;14.45;7.65;;;;;;;1.91;82.35;100235.97;5004124;28;20073;-45
2022/11/06 22:36:18;;;;;;;16.70;8.13;;;;;;;1.87;82.65;100228.25;5005957;28;20451;-49
2022/11/06 22:38:45;;;;;;;19.35;8.88;;;;;;;1.88;83.50;100225.72;5008690;28;20046;-48
2022/11/06 22:41:14;;;;;;;16.38;8.07;;;;;;;1.88;84.38;100220.56;4976189;28;20040;-45
2022/11/06 22:43:41;;;;;;;17.13;8.55;;;;;;;1.90;84.85;100220.56;4996542;28;20049;-48
2022/11/06 22:46:12;;;;;;;17.33;8.85;;;;;;;1.92;85.25;100221.44;5002059;28;20422;-45
2022/11/06 22:48:42;;;;;;;7.82;4.47;;;;;;;1.96;85.25;100216.38;4990415;28;20050;-44
2022/11/06 22:51:11;;;;;;;15.20;7.75;;;;;;;1.66;85.96;100170.81;4989004;28;20529;-45
2022/11/06 22:53:37;;;;;;;16.17;8.23;;;;;;;1.95;85.96;100221.47;5000379;28;20584;-49
2022/11/06 22:56:03;;;;;;;18.98;9.23;;;;;;;1.98;85.95;100224.94;5008281;28;20037;-45
2022/11/06 22:58:29;;;;;;;19.35;8.70;;;;;;;1.74;86.55;100170.88;5008623;28;20049;-48
2022/11/06 23:00:56;;;;;;;16.90;8.30;;;;;;;1.83;86.71;100198.31;4975167;28;20034;-47
2022/11/06 23:03:23;;;;;;;19.27;9.43;;;;;;;1.96;86.88;100223.19;5002895;28;20116;-50
2022/11/06 23:05:49;;;;;;;15.65;8.05;;;;;;;1.97;87.04;100228.34;5009344;28;20129;-48
2022/11/06 23:08:16;;;;;;;16.55;8.57;;;;;;;1.94;87.80;100230.00;4985486;28;20045;-49
2022/11/06 23:10:42;;;;;;;19.13;9.13;;;;;;;1.94;87.75;100230.00;5007509;28;20132;-51
2022/11/06 23:13:09;;;;;;;15.00;7.15;;;;;;;1.92;88.19;100229.16;5007942;28;20065;-49
2022/11/06 23:15:36;;;;;;;18.23;8.15;;;;;;;1.93;89.06;100229.16;4975648;28;20513;-48
2022/11/06 23:18:02;;;;;;;18.00;8.90;;;;;;;1.92;89.14;100232.56;5007579;28;20597;-43
2022/11/06 23:20:32;;;;;;;16.70;7.13;;;;;;;1.90;89.78;100231.69;4993942;28;20046;-45
2022/11/06 23:22:59;;;;;;;17.02;8.32;;;;;;;1.83;90.47;100234.19;5002013;28;20069;-45
2022/11/06 23:25:26;;;;;;;14.27;7.28;;;;;;;1.74;91.25;100239.22;5022989;28;20050;-46
2022/11/06 23:27:52;;;;;;;18.00;8.60;;;;;;;1.62;92.34;100245.09;4997645;28;20052;-43
2022/11/06 23:30:18;;;;;;;11.80;6.28;;;;;;;1.56;93.53;100248.44;4972353;28;20038;-44
2022/11/06 23:32:44;;;;;;;18.95;8.75;;;;;;;1.47;94.39;100239.78;4989530;28;20042;-47
2022/11/06 23:35:11;;;;;;;18.13;8.55;;;;;;;1.46;95.09;100243.22;5004208;28;20044;-48
2022/11/06 23:37:38;;;;;;;20.67;8.25;;;;;;;1.31;96.28;100222.53;5011731;28;20531;-49
2022/11/06 23:40:06;;;;;;;18.77;9.02;;;;;;;1.43;96.84;100236.31;4990885;28;20041;-45
2022/11/06 23:42:32;;;;;;;22.10;10.20;;;;;;;1.11;97.13;100189.00;5008887;28;20141;-45
2022/11/06 23:47:42;;;;;;;20.90;10.38;;;;;;;1.32;98.64;100214.00;5002789;28;20096;-47
2022/11/06 23:50:09;;;;;;;19.77;10.20;;;;;;;1.51;98.70;100237.28;4988890;28;20045;-52
2022/11/06 23:52:35;;;;;;;24.58;10.82;;;;;;;1.49;99.40;100233.84;4990550;28;20048;-44
2022/11/06 23:55:02;;;;;;;19.67;9.27;;;;;;;1.51;99.28;100232.16;5007988;28;20105;-46
2022/11/06 23:57:29;;;;;;;21.83;10.35;;;;;;;1.49;99.89;100226.16;5009072;28;20042;-47
2022/11/06 23:59:55;;;;;;;16.58;8.48;;;;;;;1.49;100.00;100223.59;5005999;28;20120;-44
